createdAt,value
2023-03-22T00:00:55.568Z,660.0000
2023-03-22T00:01:57.734Z,660.0000
2023-03-22T00:03:00.044Z,661.0000
2023-03-22T00:04:02.071Z,655.0000
2023-03-22T00:05:04.245Z,655.0000
2023-03-22T00:06:06.496Z,654.0000
2023-03-22T00:07:06.636Z,655.0000
2023-03-22T00:08:08.919Z,655.0000
2023-03-22T00:09:11.080Z,655.0000
2023-03-22T00:10:13.335Z,654.0000
2023-03-22T00:11:15.649Z,650.0000
2023-03-22T00:12:17.839Z,650.0000
2023-03-22T00:13:20.141Z,652.0000
2023-03-22T00:14:22.385Z,652.0000
2023-03-22T00:15:24.634Z,653.0000
2023-03-22T00:16:24.818Z,651.0000
2023-03-22T00:17:26.971Z,651.0000
2023-03-22T00:18:29.318Z,651.0000
2023-03-22T00:19:31.456Z,652.0000
2023-03-22T00:20:33.706Z,654.0000
2023-03-22T00:21:35.968Z,650.0000
2023-03-22T00:22:38.245Z,650.0000
2023-03-22T00:23:40.490Z,649.0000
2023-03-22T00:24:42.720Z,648.0000
2023-03-22T00:25:42.813Z,652.0000
2023-03-22T00:26:45.052Z,652.0000
2023-03-22T00:27:47.288Z,651.0000
2023-03-22T00:28:49.508Z,646.0000
2023-03-22T00:29:51.670Z,646.0000
2023-03-22T00:30:53.907Z,643.0000
2023-03-22T00:31:56.235Z,645.0000
2023-03-22T00:32:58.361Z,645.0000
2023-03-22T00:34:00.634Z,645.0000
2023-03-22T00:35:02.796Z,646.0000
2023-03-22T00:36:05.029Z,644.0000
2023-03-22T00:37:07.275Z,646.0000
2023-03-22T00:38:09.524Z,645.0000
2023-03-22T00:39:09.597Z,645.0000
2023-03-22T00:40:11.831Z,644.0000
2023-03-22T00:41:14.049Z,645.0000
2023-03-22T00:42:16.305Z,646.0000
2023-03-22T00:43:18.588Z,645.0000
2023-03-22T00:44:20.981Z,646.0000
2023-03-22T00:45:23.188Z,645.0000
2023-03-22T00:46:25.569Z,647.0000
2023-03-22T00:47:25.631Z,649.0000
2023-03-22T00:48:27.935Z,650.0000
2023-03-22T00:49:30.363Z,654.0000
2023-03-22T00:50:32.537Z,652.0000
2023-03-22T00:51:34.765Z,649.0000
2023-03-22T00:52:36.981Z,647.0000
2023-03-22T00:53:42.433Z,643.0000
2023-03-22T00:54:41.409Z,642.0000
2023-03-22T00:55:43.608Z,644.0000
2023-03-22T00:56:43.682Z,644.0000
2023-03-22T00:57:45.884Z,646.0000
2023-03-22T00:58:48.104Z,647.0000
2023-03-22T00:59:50.319Z,648.0000
2023-03-22T01:00:52.588Z,644.0000
2023-03-22T01:01:54.718Z,640.0000
2023-03-22T01:02:56.921Z,645.0000
2023-03-22T01:03:59.367Z,644.0000
2023-03-22T01:05:01.650Z,647.0000
2023-03-22T01:06:03.760Z,648.0000
2023-03-22T01:07:06.041Z,646.0000
2023-03-22T01:08:06.194Z,647.0000
2023-03-22T01:09:08.510Z,646.0000
2023-03-22T01:10:10.834Z,647.0000
2023-03-22T01:11:13.145Z,647.0000
2023-03-22T01:12:15.438Z,646.0000
2023-03-22T01:13:18.114Z,647.0000
2023-03-22T01:14:20.086Z,647.0000
2023-03-22T01:15:20.278Z,643.0000
2023-03-22T01:16:22.585Z,640.0000
2023-03-22T01:17:24.623Z,642.0000
2023-03-22T01:18:26.843Z,638.0000
2023-03-22T01:19:29.051Z,637.0000
2023-03-22T01:20:31.266Z,638.0000
2023-03-22T01:21:33.418Z,637.0000
2023-03-22T01:22:35.582Z,637.0000
2023-03-22T01:23:37.835Z,636.0000
2023-03-22T01:24:40.067Z,631.0000
2023-03-22T01:25:42.350Z,633.0000
2023-03-22T01:26:42.432Z,633.0000
2023-03-22T01:27:44.703Z,633.0000
2023-03-22T01:28:46.946Z,632.0000
2023-03-22T01:29:49.180Z,629.0000
2023-03-22T01:30:51.454Z,629.0000
2023-03-22T01:31:53.549Z,628.0000
2023-03-22T01:32:55.801Z,631.0000
2023-03-22T01:33:58.048Z,626.0000
2023-03-22T01:35:00.322Z,624.0000
2023-03-22T01:36:02.842Z,628.0000
2023-03-22T01:37:02.783Z,629.0000
2023-03-22T01:38:05.097Z,627.0000
2023-03-22T01:39:07.411Z,625.0000
2023-03-22T01:40:09.695Z,625.0000
2023-03-22T01:41:12.114Z,626.0000
2023-03-22T01:42:14.248Z,628.0000
2023-03-22T01:43:14.357Z,629.0000
2023-03-22T01:44:16.589Z,629.0000
2023-03-22T01:45:18.816Z,629.0000
2023-03-22T01:47:44.927Z,628.0000
2023-03-22T01:48:47.076Z,626.0000
2023-03-22T01:49:49.175Z,624.0000
2023-03-22T01:50:51.406Z,624.0000
2023-03-22T01:51:51.482Z,625.0000
2023-03-22T01:52:53.684Z,625.0000
2023-03-22T01:53:55.842Z,626.0000
2023-03-22T01:54:58.052Z,628.0000
2023-03-22T01:56:00.287Z,626.0000
2023-03-22T01:57:02.512Z,626.0000
2023-03-22T01:58:04.834Z,629.0000
2023-03-22T01:59:06.931Z,629.0000
2023-03-22T02:00:09.100Z,627.0000
2023-03-22T02:01:11.352Z,624.0000
2023-03-22T02:02:13.497Z,621.0000
2023-03-22T02:03:15.893Z,622.0000
2023-03-22T02:04:18.075Z,623.0000
2023-03-22T02:05:18.198Z,625.0000
2023-03-22T02:06:20.490Z,626.0000
2023-03-22T02:07:22.787Z,626.0000
2023-03-22T02:08:25.164Z,626.0000
2023-03-22T02:09:27.328Z,626.0000
2023-03-22T02:10:29.617Z,625.0000
2023-03-22T02:11:31.866Z,624.0000
2023-03-22T02:12:34.106Z,624.0000
2023-03-22T02:13:34.341Z,625.0000
2023-03-22T02:14:36.495Z,625.0000
2023-03-22T02:15:38.790Z,622.0000
2023-03-22T02:16:41.031Z,624.0000
2023-03-22T02:17:43.313Z,623.0000
2023-03-22T02:18:45.620Z,625.0000
2023-03-22T02:19:47.893Z,627.0000
2023-03-22T02:20:50.196Z,628.0000
2023-03-22T02:21:52.420Z,628.0000
2023-03-22T02:22:54.735Z,631.0000
2023-03-22T02:23:57.115Z,631.0000
2023-03-22T02:24:59.275Z,627.0000
2023-03-22T02:26:01.546Z,631.0000
2023-03-22T02:27:03.801Z,633.0000
2023-03-22T02:28:06.080Z,630.0000
2023-03-22T02:29:06.265Z,633.0000
2023-03-22T02:30:08.492Z,633.0000
2023-03-22T02:31:10.840Z,635.0000
2023-03-22T02:32:13.086Z,633.0000
2023-03-22T02:33:15.390Z,635.0000
2023-03-22T02:34:17.689Z,633.0000
2023-03-22T02:35:20.040Z,634.0000
2023-03-22T02:36:20.129Z,630.0000
2023-03-22T02:37:22.424Z,628.0000
2023-03-22T02:38:24.732Z,630.0000
2023-03-22T02:39:27.055Z,630.0000
2023-03-22T02:40:29.303Z,630.0000
2023-03-22T02:41:31.592Z,630.0000
2023-03-22T02:42:31.727Z,631.0000
2023-03-22T02:43:34.027Z,632.0000
2023-03-22T02:44:36.328Z,630.0000
2023-03-22T02:45:38.539Z,632.0000
2023-03-22T02:46:40.857Z,636.0000
2023-03-22T02:47:43.141Z,639.0000
2023-03-22T02:48:45.331Z,639.0000
2023-03-22T02:49:47.720Z,641.0000
2023-03-22T02:49:58.377Z,640.0000
2023-03-22T02:51:00.680Z,637.0000
2023-03-22T02:52:02.964Z,639.0000
2023-03-22T02:53:05.269Z,641.0000
2023-03-22T02:54:07.580Z,639.0000
2023-03-22T02:55:09.923Z,639.0000
2023-03-22T02:56:09.935Z,639.0000
2023-03-22T02:57:12.258Z,639.0000
2023-03-22T02:58:14.560Z,636.0000
2023-03-22T02:59:16.859Z,637.0000
2023-03-22T03:00:19.111Z,639.0000
2023-03-22T03:01:21.391Z,639.0000
2023-03-22T03:02:23.780Z,642.0000
2023-03-22T03:03:25.951Z,645.0000
2023-03-22T03:04:26.072Z,651.0000
2023-03-22T03:05:28.410Z,650.0000
2023-03-22T03:06:30.576Z,647.0000
2023-03-22T03:07:32.875Z,645.0000
2023-03-22T03:08:35.158Z,642.0000
2023-03-22T03:09:37.476Z,638.0000
2023-03-22T03:10:39.956Z,639.0000
2023-03-22T03:11:39.879Z,637.0000
2023-03-22T03:12:42.160Z,639.0000
2023-03-22T03:13:44.404Z,643.0000
2023-03-22T03:14:46.685Z,645.0000
2023-03-22T03:15:53.046Z,638.0000
2023-03-22T03:16:53.496Z,629.0000
2023-03-22T03:17:55.724Z,624.0000
2023-03-22T03:18:57.987Z,623.0000
2023-03-22T03:20:00.293Z,622.0000
2023-03-22T03:21:02.567Z,624.0000
2023-03-22T03:22:02.691Z,628.0000
2023-03-22T03:23:04.985Z,633.0000
2023-03-22T03:24:07.273Z,632.0000
2023-03-22T03:25:09.574Z,630.0000
2023-03-22T03:26:11.862Z,628.0000
2023-03-22T03:27:14.107Z,625.0000
2023-03-22T03:28:16.384Z,625.0000
2023-03-22T03:29:16.514Z,626.0000
2023-03-22T03:30:18.800Z,627.0000
2023-03-22T03:31:21.114Z,627.0000
2023-03-22T03:32:23.349Z,622.0000
2023-03-22T03:33:25.618Z,622.0000
2023-03-22T03:35:28.199Z,632.0000
2023-03-22T03:36:30.362Z,628.0000
2023-03-22T03:37:32.526Z,624.0000
2023-03-22T03:38:34.736Z,622.0000
2023-03-22T03:39:36.992Z,621.0000
2023-03-22T03:40:39.552Z,623.0000
2023-03-22T03:41:41.569Z,622.0000
2023-03-22T03:42:43.685Z,622.0000
2023-03-22T03:43:45.930Z,621.0000
2023-03-22T03:44:48.157Z,619.0000
2023-03-22T03:45:48.274Z,622.0000
2023-03-22T03:46:50.608Z,619.0000
2023-03-22T03:47:52.736Z,619.0000
2023-03-22T03:48:54.932Z,619.0000
2023-03-22T03:49:57.184Z,616.0000
2023-03-22T03:50:59.445Z,618.0000
2023-03-22T03:52:01.689Z,619.0000
2023-03-22T03:53:03.897Z,619.0000
2023-03-22T03:54:06.164Z,620.0000
2023-03-22T03:55:08.425Z,623.0000
2023-03-22T03:56:10.743Z,622.0000
2023-03-22T03:57:10.851Z,622.0000
2023-03-22T03:58:13.094Z,623.0000
2023-03-22T03:59:15.375Z,629.0000
2023-03-22T04:00:15.557Z,633.0000
2023-03-22T04:01:17.850Z,639.0000
2023-03-22T04:02:20.226Z,639.0000
2023-03-22T04:03:22.305Z,635.0000
2023-03-22T04:04:24.596Z,638.0000
2023-03-22T04:05:24.696Z,642.0000
2023-03-22T04:06:27.075Z,648.0000
2023-03-22T04:07:29.295Z,651.0000
2023-03-22T04:08:31.550Z,654.0000
2023-03-22T04:09:33.732Z,655.0000
2023-03-22T04:10:35.960Z,656.0000
2023-03-22T04:11:38.176Z,657.0000
2023-03-22T04:12:40.389Z,655.0000
2023-03-22T04:13:42.604Z,652.0000
2023-03-22T04:14:44.792Z,653.0000
2023-03-22T04:15:44.908Z,648.0000
2023-03-22T04:16:47.203Z,649.0000
2023-03-22T04:17:49.557Z,651.0000
2023-03-22T04:18:51.719Z,658.0000
2023-03-22T04:19:53.983Z,665.0000
2023-03-22T04:20:56.255Z,663.0000
2023-03-22T04:21:58.539Z,669.0000
2023-03-22T04:23:00.846Z,668.0000
2023-03-22T04:24:00.942Z,671.0000
2023-03-22T04:25:03.175Z,672.0000
2023-03-22T04:26:05.420Z,677.0000
2023-03-22T04:27:07.708Z,678.0000
2023-03-22T04:28:10.065Z,677.0000
2023-03-22T04:29:12.247Z,676.0000
2023-03-22T04:30:14.507Z,679.0000
2023-03-22T04:31:14.651Z,685.0000
2023-03-22T04:32:16.917Z,684.0000
2023-03-22T04:33:19.311Z,681.0000
2023-03-22T04:34:21.467Z,683.0000
2023-03-22T04:35:23.772Z,687.0000
2023-03-22T04:36:26.003Z,689.0000
2023-03-22T04:37:28.289Z,688.0000
2023-03-22T04:38:30.571Z,688.0000
2023-03-22T04:39:32.804Z,690.0000
2023-03-22T04:40:32.919Z,691.0000
2023-03-22T04:41:35.207Z,692.0000
2023-03-22T04:42:37.567Z,692.0000
2023-03-22T04:43:39.902Z,696.0000
2023-03-22T04:44:42.045Z,695.0000
2023-03-22T04:45:44.310Z,698.0000
2023-03-22T04:46:46.686Z,701.0000
2023-03-22T04:47:46.774Z,705.0000
2023-03-22T04:48:49.199Z,715.0000
2023-03-22T04:49:51.433Z,717.0000
2023-03-22T04:50:53.789Z,722.0000
2023-03-22T04:51:56.131Z,722.0000
2023-03-22T04:52:56.317Z,722.0000
2023-03-22T04:53:58.605Z,719.0000
2023-03-22T04:55:00.913Z,717.0000
2023-03-22T04:56:03.198Z,716.0000
2023-03-22T04:57:05.445Z,720.0000
2023-03-22T04:58:07.730Z,721.0000
2023-03-22T04:59:07.878Z,720.0000
2023-03-22T05:00:10.162Z,721.0000
2023-03-22T05:01:12.551Z,721.0000
2023-03-22T05:02:14.764Z,722.0000
2023-03-22T05:03:17.032Z,721.0000
2023-03-22T05:04:19.265Z,736.0000
2023-03-22T05:05:21.502Z,736.0000
2023-03-22T05:06:23.754Z,735.0000
2023-03-22T05:07:23.875Z,739.0000
2023-03-22T05:08:26.124Z,746.0000
2023-03-22T05:09:28.510Z,748.0000
2023-03-22T05:10:30.625Z,748.0000
2023-03-22T05:11:32.874Z,752.0000
2023-03-22T05:12:35.078Z,754.0000
2023-03-22T05:13:37.396Z,754.0000
2023-03-22T05:14:39.631Z,759.0000
2023-03-22T05:15:41.949Z,761.0000
2023-03-22T05:16:44.134Z,763.0000
2023-03-22T05:17:44.218Z,764.0000
2023-03-22T05:18:46.360Z,767.0000
2023-03-22T05:19:48.619Z,767.0000
2023-03-22T05:20:50.862Z,772.0000
2023-03-22T05:21:53.125Z,772.0000
2023-03-22T05:22:55.379Z,774.0000
2023-03-22T05:23:57.615Z,775.0000
2023-03-22T05:24:59.977Z,774.0000
2023-03-22T05:26:02.133Z,778.0000
2023-03-22T05:27:04.364Z,786.0000
2023-03-22T05:28:04.509Z,788.0000
2023-03-22T05:29:06.789Z,791.0000
2023-03-22T05:30:09.149Z,791.0000
2023-03-22T05:31:11.382Z,792.0000
2023-03-22T05:32:13.627Z,756.0000
2023-03-22T05:33:15.911Z,741.0000
2023-03-22T05:34:18.203Z,747.0000
2023-03-22T05:35:18.442Z,744.0000
2023-03-22T05:36:20.630Z,745.0000
2023-03-22T05:37:22.955Z,746.0000
2023-03-22T05:38:25.231Z,748.0000
2023-03-22T05:39:27.524Z,752.0000
2023-03-22T05:40:29.856Z,756.0000
2023-03-22T05:41:33.265Z,753.0000
2023-03-22T05:42:32.214Z,750.0000
2023-03-22T05:43:34.427Z,755.0000
2023-03-22T05:44:36.657Z,760.0000
2023-03-22T05:45:39.001Z,758.0000
2023-03-22T05:46:41.263Z,756.0000
2023-03-22T05:47:43.485Z,753.0000
2023-03-22T05:48:45.742Z,754.0000
2023-03-22T05:49:48.150Z,755.0000
2023-03-22T05:50:50.242Z,757.0000
2023-03-22T05:51:52.460Z,759.0000
2023-03-22T05:52:54.708Z,757.0000
2023-03-22T05:53:56.921Z,736.0000
2023-03-22T05:54:59.114Z,671.0000
2023-03-22T05:56:01.333Z,629.0000
2023-03-22T05:57:03.577Z,605.0000
2023-03-22T05:58:05.758Z,572.0000
2023-03-22T05:59:08.002Z,563.0000
2023-03-22T06:00:10.278Z,550.0000
2023-03-22T06:01:12.607Z,538.0000
2023-03-22T06:02:14.818Z,531.0000
2023-03-22T06:03:16.886Z,526.0000
2023-03-22T06:04:17.137Z,525.0000
2023-03-22T06:05:19.396Z,512.0000
2023-03-22T06:06:21.801Z,517.0000
2023-03-22T06:07:23.953Z,517.0000
2023-03-22T06:08:26.762Z,516.0000
2023-03-22T06:09:28.538Z,556.0000
2023-03-22T06:10:30.810Z,583.0000
2023-03-22T06:11:31.049Z,594.0000
2023-03-22T06:12:33.175Z,603.0000
2023-03-22T06:13:35.441Z,614.0000
2023-03-22T06:14:37.650Z,620.0000
2023-03-22T06:15:39.921Z,625.0000
2023-03-22T06:16:42.248Z,628.0000
2023-03-22T06:17:44.392Z,630.0000
2023-03-22T06:18:46.613Z,634.0000
2023-03-22T06:19:48.875Z,637.0000
2023-03-22T06:20:51.062Z,636.0000
2023-03-22T06:21:53.158Z,638.0000
2023-03-22T06:22:55.274Z,640.0000
2023-03-22T06:23:57.383Z,642.0000
2023-03-22T06:24:59.493Z,643.0000
2023-03-22T06:26:01.668Z,643.0000
2023-03-22T06:27:04.006Z,643.0000
2023-03-22T06:28:08.611Z,641.0000
2023-03-22T06:29:08.397Z,636.0000
2023-03-22T06:30:10.652Z,635.0000
2023-03-22T06:31:13.009Z,633.0000
2023-03-22T06:32:15.176Z,635.0000
2023-03-22T06:33:17.374Z,637.0000
2023-03-22T06:34:17.460Z,637.0000
2023-03-22T06:35:19.697Z,640.0000
2023-03-22T06:36:21.908Z,641.0000
2023-03-22T06:37:24.159Z,642.0000
2023-03-22T06:38:26.316Z,639.0000
2023-03-22T06:39:28.534Z,637.0000
2023-03-22T06:40:30.718Z,638.0000
2023-03-22T06:41:33.034Z,636.0000
2023-03-22T06:42:35.296Z,641.0000
2023-03-22T06:43:37.431Z,640.0000
2023-03-22T06:44:39.687Z,640.0000
2023-03-22T06:45:41.990Z,641.0000
2023-03-22T06:46:42.059Z,642.0000
2023-03-22T06:47:44.507Z,643.0000
2023-03-22T06:48:46.493Z,642.0000
2023-03-22T06:49:48.665Z,645.0000
2023-03-22T06:50:50.885Z,642.0000
2023-03-22T06:51:53.118Z,640.0000
2023-03-22T06:52:55.370Z,641.0000
2023-03-22T06:53:57.501Z,639.0000
2023-03-22T06:54:59.696Z,636.0000
2023-03-22T06:56:01.834Z,636.0000
2023-03-22T06:57:04.009Z,640.0000
2023-03-22T06:58:06.168Z,640.0000
2023-03-22T06:59:08.381Z,640.0000
2023-03-22T07:00:10.564Z,638.0000
2023-03-22T07:01:12.800Z,638.0000
2023-03-22T07:02:14.891Z,641.0000
2023-03-22T07:03:17.136Z,639.0000
2023-03-22T07:04:19.357Z,640.0000
2023-03-22T07:05:19.469Z,641.0000
2023-03-22T07:06:21.764Z,639.0000
2023-03-22T07:07:24.026Z,641.0000
2023-03-22T07:08:26.423Z,639.0000
2023-03-22T07:09:28.597Z,636.0000
2023-03-22T07:10:30.918Z,636.0000
2023-03-22T07:11:33.187Z,636.0000
2023-03-22T07:12:33.336Z,637.0000
2023-03-22T07:13:35.736Z,620.0000
2023-03-22T07:14:37.981Z,530.0000
2023-03-22T07:15:40.403Z,524.0000
2023-03-22T07:16:42.737Z,488.0000
2023-03-22T07:17:42.909Z,488.0000
2023-03-22T07:18:45.275Z,488.0000
2023-03-22T07:19:47.613Z,482.0000
2023-03-22T07:20:50.000Z,484.0000
2023-03-22T07:21:52.354Z,488.0000
2023-03-22T07:22:52.595Z,488.0000
2023-03-22T07:23:54.995Z,491.0000
2023-03-22T07:24:59.928Z,484.0000
2023-03-22T07:25:59.734Z,483.0000
2023-03-22T07:27:02.138Z,478.0000
2023-03-22T07:28:02.412Z,478.0000
2023-03-22T07:29:04.948Z,475.0000
2023-03-22T07:30:05.129Z,469.0000
2023-03-22T07:31:07.462Z,474.0000
2023-03-22T07:32:09.891Z,474.0000
2023-03-22T07:33:12.139Z,476.0000
2023-03-22T07:34:14.473Z,478.0000
2023-03-22T07:35:16.782Z,481.0000
2023-03-22T07:36:16.838Z,487.0000
2023-03-22T07:37:19.152Z,502.0000
2023-03-22T07:38:21.473Z,515.0000
2023-03-22T07:39:23.757Z,521.0000
2023-03-22T07:40:26.020Z,526.0000
2023-03-22T07:41:28.305Z,530.0000
2023-03-22T07:42:30.590Z,533.0000
2023-03-22T07:43:30.734Z,537.0000
2023-03-22T07:44:33.131Z,537.0000
2023-03-22T07:45:35.305Z,538.0000
2023-03-22T07:46:37.675Z,540.0000
2023-03-22T07:47:41.551Z,540.0000
2023-03-22T07:48:42.154Z,540.0000
2023-03-22T07:51:25.745Z,543.0000
2023-03-22T07:52:27.845Z,541.0000
2023-03-22T07:53:30.107Z,533.0000
2023-03-22T07:54:34.210Z,535.0000
2023-03-22T07:55:34.635Z,533.0000
2023-03-22T07:56:34.790Z,531.0000
2023-03-22T07:57:37.020Z,529.0000
2023-03-22T07:58:39.299Z,529.0000
2023-03-22T07:59:41.548Z,532.0000
2023-03-22T08:00:43.784Z,530.0000
2023-03-22T08:01:46.218Z,534.0000
2023-03-22T08:02:48.321Z,537.0000
2023-03-22T08:03:50.594Z,536.0000
2023-03-22T08:04:56.109Z,531.0000
2023-03-22T08:05:55.138Z,530.0000
2023-03-22T08:06:57.375Z,536.0000
2023-03-22T08:07:57.410Z,536.0000
2023-03-22T08:08:59.631Z,535.0000
2023-03-22T08:10:01.828Z,539.0000
2023-03-22T08:11:03.996Z,540.0000
2023-03-22T08:12:06.348Z,542.0000
2023-03-22T08:13:08.449Z,541.0000
2023-03-22T08:14:10.655Z,540.0000
2023-03-22T08:15:12.919Z,542.0000
2023-03-22T08:16:15.161Z,543.0000
2023-03-22T08:17:17.381Z,544.0000
2023-03-22T08:18:19.588Z,544.0000
2023-03-22T08:19:21.841Z,542.0000
2023-03-22T08:20:24.049Z,541.0000
2023-03-22T08:21:26.305Z,539.0000
2023-03-22T08:22:26.413Z,540.0000
2023-03-22T08:23:40.461Z,536.0000
2023-03-22T08:24:30.869Z,537.0000
2023-03-22T08:25:33.114Z,538.0000
2023-03-22T08:26:35.381Z,537.0000
2023-03-22T08:27:37.750Z,535.0000
2023-03-22T08:28:39.827Z,529.0000
2023-03-22T08:29:42.024Z,532.0000
2023-03-22T08:30:44.280Z,528.0000
2023-03-22T08:31:44.450Z,526.0000
2023-03-22T08:32:46.749Z,528.0000
2023-03-22T08:33:49.028Z,528.0000
2023-03-22T08:34:51.399Z,534.0000
2023-03-22T08:35:53.707Z,534.0000
2023-03-22T08:36:55.997Z,535.0000
2023-03-22T08:37:56.238Z,537.0000
2023-03-22T08:38:58.513Z,542.0000
2023-03-22T08:40:00.833Z,543.0000
2023-03-22T08:41:03.022Z,544.0000
2023-03-22T08:42:05.337Z,545.0000
2023-03-22T08:43:07.679Z,542.0000
2023-03-22T08:44:09.959Z,539.0000
2023-03-22T08:45:10.106Z,532.0000
2023-03-22T08:46:12.426Z,531.0000
2023-03-22T08:47:14.740Z,535.0000
2023-03-22T08:48:17.176Z,534.0000
2023-03-22T08:49:19.380Z,533.0000
2023-03-22T08:50:21.718Z,529.0000
2023-03-22T08:51:21.891Z,520.0000
2023-03-22T08:52:24.190Z,511.0000
2023-03-22T08:53:26.634Z,507.0000
2023-03-22T08:54:28.822Z,507.0000
2023-03-22T08:55:31.096Z,504.0000
2023-03-22T08:56:33.364Z,501.0000
2023-03-22T08:57:33.557Z,501.0000
2023-03-22T08:58:35.870Z,496.0000
2023-03-22T08:59:38.173Z,494.0000
2023-03-22T09:00:48.602Z,489.0000
2023-03-22T09:01:40.657Z,489.0000
2023-03-22T09:02:42.921Z,489.0000
2023-03-22T09:03:45.340Z,485.0000
2023-03-22T09:04:47.737Z,484.0000
2023-03-22T09:05:49.925Z,484.0000
2023-03-22T09:06:52.142Z,482.0000
2023-03-22T09:07:52.289Z,481.0000
2023-03-22T09:08:54.649Z,478.0000
2023-03-22T09:09:56.820Z,474.0000
2023-03-22T09:10:59.077Z,476.0000
2023-03-22T09:12:01.354Z,473.0000
2023-03-22T09:13:03.638Z,473.0000
2023-03-22T09:14:06.070Z,471.0000
2023-03-22T09:15:08.234Z,474.0000
2023-03-22T09:16:08.444Z,472.0000
2023-03-22T09:17:10.725Z,471.0000
2023-03-22T09:18:13.026Z,470.0000
2023-03-22T09:19:15.430Z,473.0000
2023-03-22T09:20:17.611Z,476.0000
2023-03-22T09:21:19.871Z,474.0000
2023-03-22T09:22:22.085Z,473.0000
2023-03-22T09:23:22.204Z,472.0000
2023-03-22T09:24:24.521Z,476.0000
2023-03-22T09:25:26.764Z,474.0000
2023-03-22T09:26:29.012Z,474.0000
2023-03-22T09:27:31.283Z,472.0000
2023-03-22T09:28:33.519Z,470.0000
2023-03-22T09:29:35.808Z,470.0000
2023-03-22T09:30:38.539Z,468.0000
2023-03-22T09:31:40.267Z,466.0000
2023-03-22T09:32:40.279Z,465.0000
2023-03-22T09:33:42.472Z,461.0000
2023-03-22T09:34:44.876Z,459.0000
2023-03-22T09:35:47.017Z,462.0000
2023-03-22T09:36:49.238Z,462.0000
2023-03-22T09:37:51.489Z,458.0000
2023-03-22T09:38:51.618Z,462.0000
2023-03-22T09:39:54.025Z,458.0000
2023-03-22T09:40:56.088Z,458.0000
2023-03-22T09:41:58.324Z,458.0000
2023-03-22T09:42:58.433Z,456.0000
2023-03-22T09:44:00.724Z,456.0000
2023-03-22T09:45:03.010Z,456.0000
2023-03-22T09:46:05.254Z,460.0000
2023-03-22T09:47:07.546Z,455.0000
2023-03-22T09:48:09.890Z,457.0000
2023-03-22T09:49:12.171Z,463.0000
2023-03-22T09:50:12.402Z,454.0000
2023-03-22T09:51:14.725Z,465.0000
2023-03-22T09:52:17.140Z,456.0000
2023-03-22T09:53:19.411Z,457.0000
2023-03-22T09:54:21.813Z,454.0000
2023-03-22T09:55:21.943Z,448.0000
2023-03-22T09:56:24.242Z,450.0000
2023-03-22T09:57:26.571Z,447.0000
2023-03-22T09:58:28.958Z,450.0000
2023-03-22T09:59:31.191Z,450.0000
2023-03-22T10:00:33.701Z,445.0000
2023-03-22T10:01:34.127Z,447.0000
2023-03-22T10:02:36.105Z,443.0000
2023-03-22T10:03:38.444Z,449.0000
2023-03-22T10:04:40.877Z,454.0000
2023-03-22T10:05:43.287Z,447.0000
2023-03-22T10:06:43.400Z,448.0000
2023-03-22T10:07:45.791Z,449.0000
2023-03-22T10:08:48.143Z,452.0000
2023-03-22T10:09:50.501Z,449.0000
2023-03-22T10:10:50.778Z,439.0000
2023-03-22T10:11:52.960Z,443.0000
2023-03-22T10:12:55.323Z,451.0000
2023-03-22T10:13:57.697Z,438.0000
2023-03-22T10:14:57.851Z,441.0000
2023-03-22T10:16:00.325Z,442.0000
2023-03-22T10:17:02.602Z,438.0000
2023-03-22T10:18:04.977Z,439.0000
2023-03-22T10:19:07.354Z,441.0000
2023-03-22T10:20:07.516Z,442.0000
2023-03-22T10:21:09.844Z,441.0000
2023-03-22T10:22:12.160Z,444.0000
2023-03-22T10:23:14.545Z,443.0000
2023-03-22T10:24:16.852Z,444.0000
2023-03-22T10:25:19.130Z,445.0000
2023-03-22T10:26:19.421Z,445.0000
2023-03-22T10:27:21.635Z,444.0000
2023-03-22T10:28:23.907Z,446.0000
2023-03-22T10:30:09.373Z,439.0000
2023-03-22T10:31:11.617Z,431.0000
2023-03-22T10:32:13.993Z,425.0000
2023-03-22T10:33:16.155Z,427.0000
2023-03-22T10:34:18.457Z,429.0000
2023-03-22T10:35:20.789Z,427.0000
2023-03-22T10:36:20.942Z,428.0000
2023-03-22T10:37:23.289Z,427.0000
2023-03-22T10:38:25.632Z,428.0000
2023-03-22T10:39:27.883Z,429.0000
2023-03-22T10:40:30.202Z,429.0000
2023-03-22T10:41:32.477Z,430.0000
2023-03-22T10:42:32.693Z,428.0000
2023-03-22T10:43:34.858Z,431.0000
2023-03-22T10:44:37.146Z,433.0000
2023-03-22T10:45:39.762Z,432.0000
2023-03-22T10:46:41.793Z,437.0000
2023-03-22T10:47:44.146Z,438.0000
2023-03-22T10:48:46.271Z,439.0000
2023-03-22T10:49:48.564Z,438.0000
2023-03-22T10:50:48.735Z,437.0000
2023-03-22T10:51:51.088Z,435.0000
2023-03-22T10:52:53.422Z,435.0000
2023-03-22T10:53:55.774Z,435.0000
2023-03-22T10:55:02.342Z,433.0000
2023-03-22T10:55:58.291Z,434.0000
2023-03-22T10:57:00.644Z,434.0000
2023-03-22T10:58:02.925Z,432.0000
2023-03-22T10:59:05.229Z,429.0000
2023-03-22T11:00:07.586Z,433.0000
2023-03-22T11:01:10.120Z,429.0000
2023-03-22T11:02:10.285Z,431.0000
2023-03-22T11:03:12.734Z,434.0000
2023-03-22T11:04:14.849Z,435.0000
2023-03-22T11:05:17.152Z,433.0000
2023-03-22T11:06:17.311Z,433.0000
2023-03-22T11:07:19.589Z,433.0000
2023-03-22T11:08:22.037Z,435.0000
2023-03-22T11:09:24.294Z,434.0000
2023-03-22T11:10:26.748Z,431.0000
2023-03-22T11:11:26.836Z,437.0000
2023-03-22T11:12:29.184Z,435.0000
2023-03-22T11:13:31.531Z,436.0000
2023-03-22T11:14:33.874Z,439.0000
2023-03-22T11:15:36.195Z,440.0000
2023-03-22T11:16:38.558Z,441.0000
2023-03-22T11:17:38.609Z,439.0000
2023-03-22T11:18:40.875Z,437.0000
2023-03-22T11:19:43.086Z,438.0000
2023-03-22T11:20:47.571Z,436.0000
2023-03-22T11:21:21.813Z,436.0000
2023-03-22T11:22:24.061Z,438.0000
2023-03-22T11:23:26.343Z,441.0000
2023-03-22T11:24:28.767Z,439.0000
2023-03-22T11:25:28.782Z,437.0000
2023-03-22T11:26:31.104Z,437.0000
2023-03-22T11:27:33.303Z,438.0000
2023-03-22T11:28:35.564Z,440.0000
2023-03-22T11:29:37.938Z,442.0000
2023-03-22T11:30:40.468Z,441.0000
2023-03-22T11:31:42.444Z,439.0000
2023-03-22T11:32:44.715Z,437.0000
2023-03-22T11:33:44.721Z,436.0000
2023-03-22T11:34:47.093Z,437.0000
2023-03-22T11:35:49.290Z,432.0000
2023-03-22T11:36:51.510Z,432.0000
2023-03-22T11:38:30.509Z,434.0000
2023-03-22T11:39:32.764Z,431.0000
2023-03-22T11:40:35.113Z,429.0000
2023-03-22T11:41:37.268Z,430.0000
2023-03-22T11:42:39.565Z,429.0000
2023-03-22T11:43:39.710Z,429.0000
2023-03-22T11:44:42.022Z,427.0000
2023-03-22T11:45:44.401Z,427.0000
2023-03-22T11:46:46.554Z,426.0000
2023-03-22T11:47:48.920Z,426.0000
2023-03-22T11:48:51.263Z,432.0000
2023-03-22T11:49:53.399Z,432.0000
2023-03-22T11:50:55.794Z,433.0000
2023-03-22T11:51:55.770Z,430.0000
2023-03-22T11:52:58.086Z,431.0000
2023-03-22T11:54:00.400Z,433.0000
2023-03-22T11:55:02.739Z,436.0000
2023-03-22T11:56:05.124Z,438.0000
2023-03-22T11:57:07.284Z,440.0000
2023-03-22T11:58:09.526Z,440.0000
2023-03-22T11:59:09.697Z,444.0000
2023-03-22T12:00:12.027Z,446.0000
2023-03-22T12:01:14.381Z,447.0000
2023-03-22T12:02:16.618Z,448.0000
2023-03-22T12:03:19.121Z,451.0000
2023-03-22T12:04:21.192Z,447.0000
2023-03-22T12:05:21.417Z,448.0000
2023-03-22T12:06:23.635Z,448.0000
2023-03-22T12:07:25.807Z,446.0000
2023-03-22T12:08:28.016Z,447.0000
2023-03-22T12:09:30.260Z,445.0000
2023-03-22T12:10:32.482Z,447.0000
2023-03-22T12:11:34.758Z,445.0000
2023-03-22T12:12:36.949Z,448.0000